TimeEST,TemperatureF,Dew PointF,Humidity,Sea Level PressureIn,VisibilityMPH,Wind Direction,Wind SpeedMPH,Gust SpeedMPH,PrecipitationIn,Events,Conditions,WindDirDegrees,DateUTC
12:17 AM,51.8,51.8,100,29.97,5.0,Calm,Calm,-,0.01,Rain,Light Rain,0,2013-01-17 05:17:00
12:45 AM,51.8,51.8,100,29.97,9.0,Calm,Calm,-,0.01,,Overcast,0,2013-01-17 05:45:00
12:54 AM,52.0,51.1,97,29.94,9.0,Calm,Calm,-,0.01,,Overcast,0,2013-01-17 05:54:00
1:15 AM,51.8,51.8,100,29.97,3.0,Calm,Calm,-,N/A,,Overcast,0,2013-01-17 06:15:00
1:34 AM,51.8,51.8,100,29.98,6.0,Calm,Calm,-,N/A,,Overcast,0,2013-01-17 06:34:00
1:54 AM,52.0,51.1,97,29.95,10.0,NNW,3.5,-,N/A,,Overcast,340,2013-01-17 06:54:00
2:27 AM,50.0,48.2,94,29.99,6.0,NNW,11.5,-,0.01,Rain,Rain,340,2013-01-17 07:27:00
2:54 AM,48.0,46.9,96,29.95,8.0,NNW,18.4,-,0.03,Rain,Light Rain,340,2013-01-17 07:54:00
3:02 AM,48.2,46.4,93,29.97,10.0,NNW,17.3,-,0.00,Rain,Light Rain,340,2013-01-17 08:02:00
3:43 AM,46.4,44.6,93,29.97,10.0,NNW,18.4,-,0.02,Rain,Light Rain,340,2013-01-17 08:43:00
3:54 AM,46.9,45.0,93,29.94,10.0,NNW,19.6,-,0.02,Rain,Light Rain,340,2013-01-17 08:54:00
4:54 AM,46.0,45.0,96,29.94,9.0,NNW,13.8,-,0.02,Rain,Light Rain,340,2013-01-17 09:54:00
5:54 AM,46.0,44.1,93,29.94,10.0,North,12.7,-,0.03,Rain,Light Rain,350,2013-01-17 10:54:00
6:20 AM,46.4,44.6,93,29.96,10.0,NNW,11.5,-,0.01,Rain,Light Rain,340,2013-01-17 11:20:00
6:54 AM,46.0,44.1,93,29.93,10.0,North,8.1,-,0.03,Rain,Light Rain,360,2013-01-17 11:54:00
7:06 AM,46.4,44.6,93,29.96,10.0,North,6.9,-,0.00,Rain,Light Rain,360,2013-01-17 12:06:00
7:13 AM,46.4,44.6,93,29.95,9.0,North,8.1,-,0.00,Rain,Light Rain,360,2013-01-17 12:13:00
7:54 AM,46.0,44.1,93,29.94,2.0,North,6.9,-,0.05,Rain,Rain,360,2013-01-17 12:54:00
8:11 AM,46.4,44.6,93,29.96,2.0,North,5.8,-,0.02,Rain,Rain,360,2013-01-17 13:11:00
8:54 AM,45.0,44.1,97,29.94,2.0,North,9.2,-,0.11,Rain,Rain,360,2013-01-17 13:54:00
8:56 AM,44.6,44.6,100,29.96,2.0,North,11.5,-,0.00,Rain,Rain,360,2013-01-17 13:56:00
9:54 AM,45.0,44.1,97,29.93,2.0,North,6.9,-,0.17,Rain,Rain,360,2013-01-17 14:54:00
10:01 AM,44.6,44.6,100,29.95,4.0,North,8.1,-,0.02,Rain,Rain,360,2013-01-17 15:01:00
10:45 AM,44.6,44.6,100,29.91,4.0,North,10.4,-,0.04,Rain,Light Rain,350,2013-01-17 15:45:00
10:48 AM,44.6,44.6,100,29.91,2.5,NNW,12.7,-,0.04,Rain,Rain,340,2013-01-17 15:48:00
10:54 AM,45.0,44.1,97,29.89,2.0,NNW,13.8,-,0.07,Rain,Rain,340,2013-01-17 15:54:00
11:02 AM,44.6,44.6,100,29.92,1.2,NNW,9.2,-,0.05,Rain,Heavy Rain,340,2013-01-17 16:02:00
11:08 AM,44.6,44.6,100,29.91,0.8,North,9.2,-,0.15,Rain,Heavy Rain,360,2013-01-17 16:08:00
11:16 AM,44.6,44.6,100,29.91,1.5,North,8.1,-,0.25,Rain,Rain,350,2013-01-17 16:16:00
11:20 AM,44.6,44.6,100,29.90,3.0,North,8.1,-,0.26,Rain,Rain,360,2013-01-17 16:20:00
11:54 AM,45.0,44.1,97,29.86,2.5,North,8.1,-,0.38,Rain,Heavy Rain,360,2013-01-17 16:54:00
12:47 PM,44.6,44.6,100,29.84,2.5,NNW,12.7,-,0.24,Rain,Rain,340,2013-01-17 17:47:00
12:54 PM,45.0,44.1,97,29.82,3.0,NNW,13.8,-,0.26,Rain,Heavy Rain,340,2013-01-17 17:54:00
1:03 PM,44.6,44.6,100,29.84,2.5,NNW,15.0,-,0.04,Rain,Heavy Rain,340,2013-01-17 18:03:00
1:21 PM,44.6,42.8,93,29.83,3.0,North,15.0,21.9,0.13,Rain,Rain,360,2013-01-17 18:21:00
1:28 PM,44.6,41.0,87,29.83,2.5,North,20.7,27.6,N/A,Rain,Heavy Rain,350,2013-01-17 18:28:00
1:54 PM,42.1,39.9,92,29.82,2.5,North,17.3,24.2,0.30,Rain,Heavy Rain,350,2013-01-17 18:54:00
2:54 PM,39.9,39.0,97,29.85,2.5,NW,15.0,-,0.27,Rain,Heavy Rain,320,2013-01-17 19:54:00
3:11 PM,39.2,39.2,100,29.85,3.0,North,10.4,-,0.07,Rain,Heavy Rain,350,2013-01-17 20:11:00
3:19 PM,39.2,39.2,100,29.87,2.0,North,10.4,-,0.12,Rain,Heavy Rain,350,2013-01-17 20:19:00
3:54 PM,39.9,39.0,97,29.81,2.0,North,15.0,-,0.28,Rain,Heavy Rain,360,2013-01-17 20:54:00
4:00 PM,39.2,39.2,100,29.82,4.0,North,11.5,23.0,0.03,Rain,Rain,10,2013-01-17 21:00:00
4:54 PM,39.0,37.0,93,29.83,6.0,NNW,15.0,27.6,0.13,Rain,Light Rain,330,2013-01-17 21:54:00
5:17 PM,39.2,37.4,93,29.86,6.0,NNW,15.0,23.0,0.00,Rain,Light Rain,340,2013-01-17 22:17:00
5:54 PM,37.9,37.0,97,29.91,10.0,NNW,16.1,28.8,0.02,Rain,Light Rain,340,2013-01-17 22:54:00
6:18 PM,37.4,37.4,100,29.91,8.0,NNW,19.6,26.5,0.01,Rain,Rain,340,2013-01-17 23:18:00
6:54 PM,37.0,37.0,100,29.95,10.0,NNW,20.7,34.5,0.03,Rain,Light Rain,340,2013-01-17 23:54:00
7:11 PM,37.4,37.4,100,29.96,10.0,NNW,15.0,31.1,0.00,Rain,Light Rain,340,2013-01-18 00:11:00
7:54 PM,37.0,37.0,100,30.02,10.0,NNW,9.2,-,0.01,Rain,Light Rain,340,2013-01-18 00:54:00
8:11 PM,37.4,37.4,100,30.04,10.0,North,10.4,-,0.00,Rain,Light Rain,10,2013-01-18 01:11:00
8:47 PM,37.4,37.4,100,30.08,10.0,North,12.7,18.4,0.02,Rain,Light Rain,360,2013-01-18 01:47:00
8:54 PM,37.0,37.0,100,30.10,10.0,North,15.0,20.7,0.02,,Overcast,10,2013-01-18 01:54:00
9:26 PM,37.4,35.6,93,30.12,10.0,North,12.7,-,N/A,,Mostly Cloudy,10,2013-01-18 02:26:00
9:52 PM,35.6,35.6,100,30.14,10.0,North,13.8,21.9,N/A,,Mostly Cloudy,10,2013-01-18 02:52:00
9:54 PM,36.0,35.1,97,30.15,10.0,North,15.0,21.9,N/A,,Mostly Cloudy,360,2013-01-18 02:54:00
10:14 PM,35.6,32.0,87,30.15,10.0,North,12.7,32.2,N/A,,Overcast,360,2013-01-18 03:14:00
10:21 PM,35.6,32.0,87,30.15,10.0,North,12.7,25.3,N/A,,Overcast,360,2013-01-18 03:21:00
10:54 PM,35.1,30.9,85,30.18,10.0,North,13.8,26.5,N/A,,Overcast,360,2013-01-18 03:54:00
11:54 PM,34.0,28.0,79,30.21,10.0,North,18.4,29.9,N/A,,Mostly Cloudy,350,2013-01-18 04:54:00